Point O Woods, Connecticut
Current Conditions -  °F | °C
As of 9:56 AM on Wednesday 22 Oct 2014 (Local Time) from KGON Reporting Station
Overcast Overcast  
Wind Chill: 55°   Ceiling: 1100
Heat Index: 55°   Visibility: 10mi
Dew Point: 52°   Wind: 13mph
Humidity: 89%   Direction: 20°NNE
Pressure: 29.92"   Gusts: NA
Location:  41.2916°N, 72.2579°W
Report Text: KGON 221356Z 02011KT 10SM OVC011 13/11 A2992 RMK AO2 SLP130 T01280111
Loading
Personal Weather Stations






























Interactive Weather Map
Tropical Storm Tracking
New forecast layout! Learn more

10-Day Weather Forecast

Advertisements
Track Severe Weather on mobile